sensor_id;sensor_type;location;lat;lon;timestamp;P1;durP1;ratioP1;P2;durP2;ratioP2
71734;SDS011;59577;52.122;5.406;2023-05-14T00:01:17;11.43;;;7.18;;
71734;SDS011;59577;52.122;5.406;2023-05-14T00:03:43;13.63;;;7.40;;
71734;SDS011;59577;52.122;5.406;2023-05-14T00:06:10;12.73;;;7.22;;
71734;SDS011;59577;52.122;5.406;2023-05-14T00:08:36;14.23;;;7.82;;
71734;SDS011;59577;52.122;5.406;2023-05-14T00:11:03;10.43;;;6.63;;
71734;SDS011;59577;52.122;5.406;2023-05-14T00:13:29;14.18;;;7.30;;
71734;SDS011;59577;52.122;5.406;2023-05-14T00:15:56;16.40;;;7.07;;
71734;SDS011;59577;52.122;5.406;2023-05-14T00:18:22;10.25;;;6.53;;
71734;SDS011;59577;52.122;5.406;2023-05-14T00:20:49;10.52;;;7.57;;
71734;SDS011;59577;52.122;5.406;2023-05-14T00:23:20;8.80;;;6.87;;
71734;SDS011;59577;52.122;5.406;2023-05-14T00:25:47;10.43;;;7.63;;
71734;SDS011;59577;52.122;5.406;2023-05-14T00:28:13;9.18;;;7.13;;
71734;SDS011;59577;52.122;5.406;2023-05-14T00:30:40;13.30;;;8.38;;
71734;SDS011;59577;52.122;5.406;2023-05-14T00:33:07;10.48;;;7.35;;
71734;SDS011;59577;52.122;5.406;2023-05-14T00:35:33;10.57;;;7.10;;
71734;SDS011;59577;52.122;5.406;2023-05-14T00:38:01;18.00;;;8.85;;
71734;SDS011;59577;52.122;5.406;2023-05-14T00:40:28;9.10;;;7.03;;
71734;SDS011;59577;52.122;5.406;2023-05-14T00:42:55;13.23;;;6.95;;
71734;SDS011;59577;52.122;5.406;2023-05-14T00:45:21;11.90;;;6.65;;
71734;SDS011;59577;52.122;5.406;2023-05-14T00:47:48;8.93;;;6.43;;
71734;SDS011;59577;52.122;5.406;2023-05-14T00:50:15;10.50;;;6.40;;
71734;SDS011;59577;52.122;5.406;2023-05-14T00:52:43;9.05;;;6.70;;
71734;SDS011;59577;52.122;5.406;2023-05-14T00:55:09;10.02;;;6.65;;
71734;SDS011;59577;52.122;5.406;2023-05-14T00:57:41;9.02;;;7.35;;
71734;SDS011;59577;52.122;5.406;2023-05-14T01:00:08;8.80;;;6.13;;
71734;SDS011;59577;52.122;5.406;2023-05-14T01:02:35;9.95;;;6.93;;
71734;SDS011;59577;52.122;5.406;2023-05-14T01:05:02;8.10;;;6.50;;
71734;SDS011;59577;52.122;5.406;2023-05-14T01:07:35;9.95;;;6.88;;
71734;SDS011;59577;52.122;5.406;2023-05-14T01:10:48;8.63;;;6.70;;
71734;SDS011;59577;52.122;5.406;2023-05-14T01:13:12;10.47;;;7.03;;
71734;SDS011;59577;52.122;5.406;2023-05-14T01:16:04;9.93;;;6.53;;
71734;SDS011;59577;52.122;5.406;2023-05-14T01:18:37;12.25;;;6.20;;
71734;SDS011;59577;52.122;5.406;2023-05-14T01:21:17;8.45;;;6.40;;
71734;SDS011;59577;52.122;5.406;2023-05-14T01:23:58;9.80;;;6.13;;
71734;SDS011;59577;52.122;5.406;2023-05-14T01:26:24;7.70;;;6.10;;
71734;SDS011;59577;52.122;5.406;2023-05-14T01:28:51;11.07;;;6.95;;
71734;SDS011;59577;52.122;5.406;2023-05-14T01:31:21;12.93;;;6.70;;
71734;SDS011;59577;52.122;5.406;2023-05-14T01:33:53;11.95;;;6.13;;
71734;SDS011;59577;52.122;5.406;2023-05-14T01:36:22;14.15;;;7.35;;
71734;SDS011;59577;52.122;5.406;2023-05-14T01:38:48;8.93;;;6.33;;
71734;SDS011;59577;52.122;5.406;2023-05-14T01:41:17;9.90;;;6.25;;
71734;SDS011;59577;52.122;5.406;2023-05-14T01:43:44;12.23;;;7.03;;
71734;SDS011;59577;52.122;5.406;2023-05-14T01:46:11;9.73;;;6.82;;
71734;SDS011;59577;52.122;5.406;2023-05-14T01:48:37;9.90;;;6.82;;
71734;SDS011;59577;52.122;5.406;2023-05-14T01:51:04;10.27;;;6.63;;
71734;SDS011;59577;52.122;5.406;2023-05-14T01:53:30;9.77;;;6.82;;
71734;SDS011;59577;52.122;5.406;2023-05-14T01:55:59;13.52;;;6.50;;
71734;SDS011;59577;52.122;5.406;2023-05-14T01:58:26;7.75;;;6.43;;
71734;SDS011;59577;52.122;5.406;2023-05-14T02:00:52;10.98;;;7.20;;
71734;SDS011;59577;52.122;5.406;2023-05-14T02:03:19;9.73;;;6.57;;
71734;SDS011;59577;52.122;5.406;2023-05-14T02:05:45;13.50;;;6.68;;
71734;SDS011;59577;52.122;5.406;2023-05-14T02:08:12;12.63;;;7.15;;
71734;SDS011;59577;52.122;5.406;2023-05-14T02:10:38;12.05;;;7.03;;
71734;SDS011;59577;52.122;5.406;2023-05-14T02:13:05;13.60;;;7.03;;
71734;SDS011;59577;52.122;5.406;2023-05-14T02:15:32;10.83;;;6.70;;
71734;SDS011;59577;52.122;5.406;2023-05-14T02:17:58;9.70;;;6.22;;
71734;SDS011;59577;52.122;5.406;2023-05-14T02:20:25;12.73;;;6.50;;
71734;SDS011;59577;52.122;5.406;2023-05-14T02:22:51;14.98;;;7.13;;
71734;SDS011;59577;52.122;5.406;2023-05-14T02:25:17;14.98;;;7.25;;
71734;SDS011;59577;52.122;5.406;2023-05-14T02:27:44;12.23;;;6.83;;
71734;SDS011;59577;52.122;5.406;2023-05-14T02:30:11;12.80;;;6.68;;
71734;SDS011;59577;52.122;5.406;2023-05-14T02:32:38;9.50;;;6.97;;
71734;SDS011;59577;52.122;5.406;2023-05-14T02:35:04;14.60;;;6.57;;
71734;SDS011;59577;52.122;5.406;2023-05-14T02:37:31;10.95;;;6.43;;
71734;SDS011;59577;52.122;5.406;2023-05-14T02:39:59;12.07;;;7.10;;
71734;SDS011;59577;52.122;5.406;2023-05-14T02:42:26;10.75;;;6.63;;
71734;SDS011;59577;52.122;5.406;2023-05-14T02:44:53;10.02;;;6.50;;
71734;SDS011;59577;52.122;5.406;2023-05-14T02:47:19;9.13;;;6.32;;
71734;SDS011;59577;52.122;5.406;2023-05-14T02:49:46;9.65;;;6.35;;
71734;SDS011;59577;52.122;5.406;2023-05-14T02:52:12;9.13;;;6.93;;
71734;SDS011;59577;52.122;5.406;2023-05-14T02:54:39;11.90;;;6.78;;
71734;SDS011;59577;52.122;5.406;2023-05-14T02:57:05;11.80;;;6.50;;
71734;SDS011;59577;52.122;5.406;2023-05-14T02:59:32;9.10;;;6.57;;
71734;SDS011;59577;52.122;5.406;2023-05-14T03:01:59;11.20;;;6.72;;
71734;SDS011;59577;52.122;5.406;2023-05-14T03:04:26;13.50;;;6.90;;
71734;SDS011;59577;52.122;5.406;2023-05-14T03:06:53;11.27;;;6.55;;
71734;SDS011;59577;52.122;5.406;2023-05-14T03:09:19;9.05;;;6.68;;
71734;SDS011;59577;52.122;5.406;2023-05-14T03:11:46;9.82;;;6.50;;
71734;SDS011;59577;52.122;5.406;2023-05-14T03:14:12;13.50;;;7.72;;
71734;SDS011;59577;52.122;5.406;2023-05-14T03:16:38;12.97;;;6.77;;
71734;SDS011;59577;52.122;5.406;2023-05-14T03:19:07;9.48;;;6.28;;
71734;SDS011;59577;52.122;5.406;2023-05-14T03:21:35;10.68;;;6.53;;
71734;SDS011;59577;52.122;5.406;2023-05-14T03:24:01;13.23;;;7.47;;
71734;SDS011;59577;52.122;5.406;2023-05-14T03:26:28;9.77;;;6.80;;
71734;SDS011;59577;52.122;5.406;2023-05-14T03:28:54;12.23;;;6.83;;
71734;SDS011;59577;52.122;5.406;2023-05-14T03:31:21;12.50;;;6.80;;
71734;SDS011;59577;52.122;5.406;2023-05-14T03:33:47;14.43;;;8.35;;
71734;SDS011;59577;52.122;5.406;2023-05-14T03:36:14;12.73;;;6.57;;
71734;SDS011;59577;52.122;5.406;2023-05-14T03:38:41;12.98;;;7.22;;
71734;SDS011;59577;52.122;5.406;2023-05-14T03:41:07;12.23;;;6.87;;
71734;SDS011;59577;52.122;5.406;2023-05-14T03:43:34;11.27;;;7.00;;
71734;SDS011;59577;52.122;5.406;2023-05-14T03:46:00;16.48;;;7.45;;
71734;SDS011;59577;52.122;5.406;2023-05-14T03:48:27;11.00;;;6.97;;
71734;SDS011;59577;52.122;5.406;2023-05-14T03:50:53;12.85;;;6.97;;
71734;SDS011;59577;52.122;5.406;2023-05-14T03:53:20;10.00;;;6.63;;
71734;SDS011;59577;52.122;5.406;2023-05-14T03:55:47;11.70;;;6.70;;
71734;SDS011;59577;52.122;5.406;2023-05-14T03:58:13;11.15;;;6.90;;
71734;SDS011;59577;52.122;5.406;2023-05-14T04:00:40;10.43;;;6.15;;
71734;SDS011;59577;52.122;5.406;2023-05-14T04:03:07;11.52;;;6.63;;
71734;SDS011;59577;52.122;5.406;2023-05-14T04:05:34;10.53;;;6.63;;
71734;SDS011;59577;52.122;5.406;2023-05-14T04:08:01;10.20;;;6.50;;
71734;SDS011;59577;52.122;5.406;2023-05-14T04:10:27;11.13;;;6.38;;
71734;SDS011;59577;52.122;5.406;2023-05-14T04:12:54;9.57;;;6.55;;
71734;SDS011;59577;52.122;5.406;2023-05-14T04:15:21;10.15;;;6.40;;
71734;SDS011;59577;52.122;5.406;2023-05-14T04:17:48;9.50;;;5.93;;
71734;SDS011;59577;52.122;5.406;2023-05-14T04:20:14;8.77;;;5.93;;
71734;SDS011;59577;52.122;5.406;2023-05-14T04:22:41;10.23;;;6.00;;
71734;SDS011;59577;52.122;5.406;2023-05-14T04:25:07;11.90;;;6.50;;
71734;SDS011;59577;52.122;5.406;2023-05-14T04:27:34;14.30;;;6.35;;
71734;SDS011;59577;52.122;5.406;2023-05-14T04:30:00;14.43;;;6.30;;
71734;SDS011;59577;52.122;5.406;2023-05-14T04:32:27;10.07;;;6.22;;
71734;SDS011;59577;52.122;5.406;2023-05-14T04:34:55;11.05;;;6.28;;
71734;SDS011;59577;52.122;5.406;2023-05-14T04:37:22;9.77;;;6.30;;
71734;SDS011;59577;52.122;5.406;2023-05-14T04:39:48;8.48;;;5.82;;
71734;SDS011;59577;52.122;5.406;2023-05-14T04:42:15;9.63;;;6.23;;
71734;SDS011;59577;52.122;5.406;2023-05-14T04:44:41;10.13;;;6.10;;
71734;SDS011;59577;52.122;5.406;2023-05-14T04:47:08;12.15;;;4.97;;
71734;SDS011;59577;52.122;5.406;2023-05-14T04:49:34;11.05;;;6.28;;
71734;SDS011;59577;52.122;5.406;2023-05-14T04:52:01;9.57;;;5.90;;
71734;SDS011;59577;52.122;5.406;2023-05-14T04:54:27;7.60;;;5.37;;
71734;SDS011;59577;52.122;5.406;2023-05-14T04:56:54;9.00;;;5.53;;
71734;SDS011;59577;52.122;5.406;2023-05-14T04:59:21;10.00;;;5.68;;
71734;SDS011;59577;52.122;5.406;2023-05-14T05:01:47;11.35;;;5.70;;
71734;SDS011;59577;52.122;5.406;2023-05-14T05:04:14;10.65;;;5.32;;
71734;SDS011;59577;52.122;5.406;2023-05-14T05:06:41;8.67;;;5.43;;
71734;SDS011;59577;52.122;5.406;2023-05-14T05:09:07;11.15;;;5.28;;
71734;SDS011;59577;52.122;5.406;2023-05-14T05:11:35;10.05;;;5.85;;
71734;SDS011;59577;52.122;5.406;2023-05-14T05:14:01;7.47;;;5.63;;
71734;SDS011;59577;52.122;5.406;2023-05-14T05:16:28;11.27;;;5.82;;
71734;SDS011;59577;52.122;5.406;2023-05-14T05:18:54;9.23;;;5.40;;
71734;SDS011;59577;52.122;5.406;2023-05-14T05:21:21;9.95;;;6.03;;
71734;SDS011;59577;52.122;5.406;2023-05-14T05:23:47;9.63;;;5.68;;
71734;SDS011;59577;52.122;5.406;2023-05-14T05:26:14;7.15;;;5.60;;
71734;SDS011;59577;52.122;5.406;2023-05-14T05:28:40;6.78;;;4.88;;
71734;SDS011;59577;52.122;5.406;2023-05-14T05:31:07;6.87;;;5.10;;
71734;SDS011;59577;52.122;5.406;2023-05-14T05:33:34;10.75;;;5.88;;
71734;SDS011;59577;52.122;5.406;2023-05-14T05:36:01;9.52;;;4.97;;
71734;SDS011;59577;52.122;5.406;2023-05-14T05:38:27;8.18;;;4.82;;
71734;SDS011;59577;52.122;5.406;2023-05-14T05:40:54;7.55;;;4.78;;
71734;SDS011;59577;52.122;5.406;2023-05-14T05:43:21;6.37;;;4.70;;
71734;SDS011;59577;52.122;5.406;2023-05-14T05:45:47;7.20;;;5.35;;
71734;SDS011;59577;52.122;5.406;2023-05-14T05:48:14;5.55;;;4.72;;
71734;SDS011;59577;52.122;5.406;2023-05-14T05:50:40;5.97;;;4.75;;
71734;SDS011;59577;52.122;5.406;2023-05-14T05:53:09;8.13;;;5.10;;
71734;SDS011;59577;52.122;5.406;2023-05-14T05:55:36;7.47;;;5.10;;
71734;SDS011;59577;52.122;5.406;2023-05-14T05:58:02;8.63;;;4.82;;
71734;SDS011;59577;52.122;5.406;2023-05-14T06:00:29;7.68;;;5.45;;
71734;SDS011;59577;52.122;5.406;2023-05-14T06:02:56;6.68;;;5.63;;
71734;SDS011;59577;52.122;5.406;2023-05-14T06:05:23;6.30;;;5.00;;
71734;SDS011;59577;52.122;5.406;2023-05-14T06:07:49;11.53;;;6.17;;
71734;SDS011;59577;52.122;5.406;2023-05-14T06:10:16;9.80;;;5.05;;
71734;SDS011;59577;52.122;5.406;2023-05-14T06:12:42;8.23;;;5.55;;
71734;SDS011;59577;52.122;5.406;2023-05-14T06:15:09;5.55;;;4.60;;
71734;SDS011;59577;52.122;5.406;2023-05-14T06:17:37;8.20;;;5.28;;
71734;SDS011;59577;52.122;5.406;2023-05-14T06:20:04;7.97;;;4.70;;
71734;SDS011;59577;52.122;5.406;2023-05-14T06:22:33;8.38;;;5.32;;
71734;SDS011;59577;52.122;5.406;2023-05-14T06:24:59;6.63;;;4.90;;
71734;SDS011;59577;52.122;5.406;2023-05-14T06:27:26;5.35;;;4.82;;
71734;SDS011;59577;52.122;5.406;2023-05-14T06:29:52;8.88;;;5.63;;
71734;SDS011;59577;52.122;5.406;2023-05-14T06:32:19;7.30;;;5.07;;
71734;SDS011;59577;52.122;5.406;2023-05-14T06:34:45;8.13;;;4.90;;
71734;SDS011;59577;52.122;5.406;2023-05-14T06:37:12;6.18;;;5.28;;
71734;SDS011;59577;52.122;5.406;2023-05-14T06:39:39;8.13;;;4.72;;
71734;SDS011;59577;52.122;5.406;2023-05-14T06:42:09;5.85;;;4.20;;
71734;SDS011;59577;52.122;5.406;2023-05-14T06:44:35;6.53;;;4.90;;
71734;SDS011;59577;52.122;5.406;2023-05-14T06:47:02;6.78;;;4.50;;
71734;SDS011;59577;52.122;5.406;2023-05-14T06:49:28;5.97;;;4.10;;
71734;SDS011;59577;52.122;5.406;2023-05-14T06:51:55;7.35;;;4.50;;
71734;SDS011;59577;52.122;5.406;2023-05-14T06:54:21;7.68;;;4.57;;
71734;SDS011;59577;52.122;5.406;2023-05-14T06:56:48;6.67;;;4.20;;
71734;SDS011;59577;52.122;5.406;2023-05-14T06:59:14;5.90;;;4.38;;
71734;SDS011;59577;52.122;5.406;2023-05-14T07:01:41;7.95;;;5.07;;
71734;SDS011;59577;52.122;5.406;2023-05-14T07:04:08;5.20;;;4.15;;
71734;SDS011;59577;52.122;5.406;2023-05-14T07:06:34;4.90;;;4.47;;
71734;SDS011;59577;52.122;5.406;2023-05-14T07:09:01;4.63;;;4.10;;
71734;SDS011;59577;52.122;5.406;2023-05-14T07:11:28;6.78;;;4.55;;
71734;SDS011;59577;52.122;5.406;2023-05-14T07:13:55;7.75;;;4.40;;
71734;SDS011;59577;52.122;5.406;2023-05-14T07:16:21;6.07;;;4.43;;
71734;SDS011;59577;52.122;5.406;2023-05-14T07:18:55;4.95;;;3.95;;
71734;SDS011;59577;52.122;5.406;2023-05-14T07:21:22;7.47;;;4.77;;
71734;SDS011;59577;52.122;5.406;2023-05-14T07:23:48;5.85;;;4.13;;
71734;SDS011;59577;52.122;5.406;2023-05-14T07:26:15;6.20;;;4.10;;
71734;SDS011;59577;52.122;5.406;2023-05-14T07:28:41;7.68;;;4.28;;
71734;SDS011;59577;52.122;5.406;2023-05-14T07:31:07;5.53;;;4.15;;
71734;SDS011;59577;52.122;5.406;2023-05-14T07:33:34;5.47;;;4.33;;
71734;SDS011;59577;52.122;5.406;2023-05-14T07:36:01;7.07;;;4.05;;
71734;SDS011;59577;52.122;5.406;2023-05-14T07:38:28;5.97;;;4.00;;
71734;SDS011;59577;52.122;5.406;2023-05-14T07:40:54;4.63;;;4.07;;
71734;SDS011;59577;52.122;5.406;2023-05-14T07:43:21;6.80;;;4.18;;
71734;SDS011;59577;52.122;5.406;2023-05-14T07:45:47;8.50;;;4.47;;
71734;SDS011;59577;52.122;5.406;2023-05-14T07:48:14;5.85;;;4.70;;
71734;SDS011;59577;52.122;5.406;2023-05-14T07:50:41;8.57;;;4.90;;
71734;SDS011;59577;52.122;5.406;2023-05-14T07:53:07;7.75;;;4.60;;
71734;SDS011;59577;52.122;5.406;2023-05-14T07:55:34;6.03;;;5.25;;
71734;SDS011;59577;52.122;5.406;2023-05-14T07:58:00;6.13;;;5.20;;
71734;SDS011;59577;52.122;5.406;2023-05-14T08:00:27;6.78;;;5.40;;
71734;SDS011;59577;52.122;5.406;2023-05-14T08:02:54;5.13;;;4.60;;
71734;SDS011;59577;52.122;5.406;2023-05-14T08:05:20;9.32;;;5.15;;
71734;SDS011;59577;52.122;5.406;2023-05-14T08:07:47;6.43;;;4.72;;
71734;SDS011;59577;52.122;5.406;2023-05-14T08:10:14;5.17;;;4.63;;
71734;SDS011;59577;52.122;5.406;2023-05-14T08:12:40;4.60;;;4.25;;
71734;SDS011;59577;52.122;5.406;2023-05-14T08:15:07;5.60;;;4.50;;
71734;SDS011;59577;52.122;5.406;2023-05-14T08:17:34;7.38;;;5.00;;
71734;SDS011;59577;52.122;5.406;2023-05-14T08:20:01;7.72;;;5.43;;
71734;SDS011;59577;52.122;5.406;2023-05-14T08:22:28;6.67;;;4.17;;
71734;SDS011;59577;52.122;5.406;2023-05-14T08:24:54;5.40;;;4.32;;
71734;SDS011;59577;52.122;5.406;2023-05-14T08:27:21;5.55;;;4.50;;
71734;SDS011;59577;52.122;5.406;2023-05-14T08:29:48;5.07;;;4.57;;
71734;SDS011;59577;52.122;5.406;2023-05-14T08:32:14;4.47;;;4.07;;
71734;SDS011;59577;52.122;5.406;2023-05-14T08:34:49;15.93;;;4.63;;
71734;SDS011;59577;52.122;5.406;2023-05-14T08:37:16;7.70;;;4.32;;
71734;SDS011;59577;52.122;5.406;2023-05-14T08:39:43;6.93;;;4.40;;
71734;SDS011;59577;52.122;5.406;2023-05-14T08:42:11;8.20;;;4.60;;
71734;SDS011;59577;52.122;5.406;2023-05-14T08:44:43;7.38;;;4.50;;
71734;SDS011;59577;52.122;5.406;2023-05-14T08:47:17;6.03;;;4.17;;
71734;SDS011;59577;52.122;5.406;2023-05-14T08:49:49;6.32;;;3.90;;
71734;SDS011;59577;52.122;5.406;2023-05-14T08:52:20;5.35;;;4.10;;
71734;SDS011;59577;52.122;5.406;2023-05-14T08:54:49;4.40;;;4.00;;
71734;SDS011;59577;52.122;5.406;2023-05-14T08:57:16;4.85;;;3.83;;
71734;SDS011;59577;52.122;5.406;2023-05-14T08:59:44;5.17;;;4.00;;
71734;SDS011;59577;52.122;5.406;2023-05-14T09:02:10;5.05;;;4.10;;
71734;SDS011;59577;52.122;5.406;2023-05-14T09:04:40;6.75;;;3.83;;
71734;SDS011;59577;52.122;5.406;2023-05-14T09:07:07;6.55;;;3.90;;
71734;SDS011;59577;52.122;5.406;2023-05-14T09:09:34;5.72;;;4.25;;
71734;SDS011;59577;52.122;5.406;2023-05-14T09:12:01;5.20;;;3.80;;
71734;SDS011;59577;52.122;5.406;2023-05-14T09:14:28;4.65;;;3.42;;
71734;SDS011;59577;52.122;5.406;2023-05-14T09:16:54;6.18;;;4.22;;
71734;SDS011;59577;52.122;5.406;2023-05-14T09:19:22;4.47;;;3.47;;
71734;SDS011;59577;52.122;5.406;2023-05-14T09:21:49;4.38;;;3.97;;
71734;SDS011;59577;52.122;5.406;2023-05-14T09:24:19;6.23;;;4.07;;
71734;SDS011;59577;52.122;5.406;2023-05-14T09:26:48;5.55;;;3.53;;
71734;SDS011;59577;52.122;5.406;2023-05-14T09:29:16;4.53;;;3.22;;
71734;SDS011;59577;52.122;5.406;2023-05-14T09:31:43;6.10;;;3.70;;
71734;SDS011;59577;52.122;5.406;2023-05-14T09:34:09;6.85;;;4.03;;
71734;SDS011;59577;52.122;5.406;2023-05-14T09:36:36;5.03;;;3.37;;
71734;SDS011;59577;52.122;5.406;2023-05-14T09:39:03;5.32;;;3.35;;
71734;SDS011;59577;52.122;5.406;2023-05-14T09:41:30;5.57;;;3.10;;
71734;SDS011;59577;52.122;5.406;2023-05-14T09:43:56;5.13;;;3.63;;
71734;SDS011;59577;52.122;5.406;2023-05-14T09:46:23;6.70;;;3.63;;
71734;SDS011;59577;52.122;5.406;2023-05-14T09:48:52;4.77;;;3.57;;
71734;SDS011;59577;52.122;5.406;2023-05-14T09:51:21;8.73;;;4.57;;
71734;SDS011;59577;52.122;5.406;2023-05-14T09:53:47;5.70;;;4.20;;
71734;SDS011;59577;52.122;5.406;2023-05-14T09:56:17;6.22;;;4.15;;
71734;SDS011;59577;52.122;5.406;2023-05-14T09:58:44;5.78;;;3.78;;
71734;SDS011;59577;52.122;5.406;2023-05-14T10:01:10;5.50;;;3.70;;
71734;SDS011;59577;52.122;5.406;2023-05-14T10:03:38;6.60;;;3.78;;
71734;SDS011;59577;52.122;5.406;2023-05-14T10:06:04;6.80;;;3.60;;
71734;SDS011;59577;52.122;5.406;2023-05-14T10:08:32;6.55;;;3.55;;
71734;SDS011;59577;52.122;5.406;2023-05-14T10:11:02;6.05;;;3.53;;
71734;SDS011;59577;52.122;5.406;2023-05-14T10:13:36;5.90;;;3.80;;
71734;SDS011;59577;52.122;5.406;2023-05-14T10:16:07;8.32;;;3.42;;
71734;SDS011;59577;52.122;5.406;2023-05-14T10:18:42;9.15;;;4.05;;
71734;SDS011;59577;52.122;5.406;2023-05-14T10:21:11;7.70;;;4.03;;
71734;SDS011;59577;52.122;5.406;2023-05-14T10:23:39;4.90;;;3.88;;
71734;SDS011;59577;52.122;5.406;2023-05-14T10:26:07;6.40;;;4.03;;
71734;SDS011;59577;52.122;5.406;2023-05-14T10:28:34;6.75;;;3.28;;
71734;SDS011;59577;52.122;5.406;2023-05-14T10:31:01;6.47;;;3.60;;
71734;SDS011;59577;52.122;5.406;2023-05-14T10:33:28;4.50;;;3.40;;
71734;SDS011;59577;52.122;5.406;2023-05-14T10:38:26;5.50;;;3.27;;
71734;SDS011;59577;52.122;5.406;2023-05-14T10:41:06;4.75;;;3.50;;
71734;SDS011;59577;52.122;5.406;2023-05-14T10:43:37;6.10;;;3.60;;
71734;SDS011;59577;52.122;5.406;2023-05-14T10:46:05;6.05;;;4.07;;
71734;SDS011;59577;52.122;5.406;2023-05-14T10:48:33;6.43;;;3.95;;
71734;SDS011;59577;52.122;5.406;2023-05-14T10:51:01;5.03;;;3.43;;
71734;SDS011;59577;52.122;5.406;2023-05-14T10:53:41;7.28;;;3.83;;
71734;SDS011;59577;52.122;5.406;2023-05-14T10:56:09;4.45;;;3.35;;
71734;SDS011;59577;52.122;5.406;2023-05-14T10:58:40;6.50;;;3.70;;
71734;SDS011;59577;52.122;5.406;2023-05-14T11:01:08;3.83;;;3.42;;
71734;SDS011;59577;52.122;5.406;2023-05-14T11:03:40;5.10;;;3.30;;
71734;SDS011;59577;52.122;5.406;2023-05-14T11:06:08;8.07;;;3.55;;
71734;SDS011;59577;52.122;5.406;2023-05-14T11:08:36;7.50;;;4.07;;
71734;SDS011;59577;52.122;5.406;2023-05-14T11:11:04;7.60;;;3.72;;
71734;SDS011;59577;52.122;5.406;2023-05-14T11:13:31;4.78;;;3.55;;
71734;SDS011;59577;52.122;5.406;2023-05-14T11:15:59;6.23;;;3.53;;
71734;SDS011;59577;52.122;5.406;2023-05-14T11:18:46;5.88;;;3.60;;
71734;SDS011;59577;52.122;5.406;2023-05-14T11:21:13;9.57;;;3.67;;
71734;SDS011;59577;52.122;5.406;2023-05-14T11:23:40;6.18;;;3.58;;
71734;SDS011;59577;52.122;5.406;2023-05-14T11:26:06;5.40;;;3.42;;
71734;SDS011;59577;52.122;5.406;2023-05-14T11:28:32;5.47;;;3.40;;
71734;SDS011;59577;52.122;5.406;2023-05-14T11:30:59;5.93;;;3.38;;
71734;SDS011;59577;52.122;5.406;2023-05-14T11:33:26;9.80;;;3.83;;
71734;SDS011;59577;52.122;5.406;2023-05-14T11:35:54;6.35;;;3.42;;
71734;SDS011;59577;52.122;5.406;2023-05-14T11:38:21;5.00;;;3.70;;
71734;SDS011;59577;52.122;5.406;2023-05-14T11:40:54;6.73;;;3.70;;
71734;SDS011;59577;52.122;5.406;2023-05-14T11:43:22;4.78;;;3.28;;
71734;SDS011;59577;52.122;5.406;2023-05-14T11:45:52;7.05;;;3.35;;
71734;SDS011;59577;52.122;5.406;2023-05-14T11:48:19;6.03;;;3.30;;
71734;SDS011;59577;52.122;5.406;2023-05-14T11:50:47;6.80;;;3.42;;
71734;SDS011;59577;52.122;5.406;2023-05-14T11:53:18;7.20;;;4.10;;
71734;SDS011;59577;52.122;5.406;2023-05-14T11:55:46;4.95;;;3.40;;
71734;SDS011;59577;52.122;5.406;2023-05-14T11:58:13;7.47;;;2.83;;
71734;SDS011;59577;52.122;5.406;2023-05-14T12:00:42;5.68;;;3.45;;
71734;SDS011;59577;52.122;5.406;2023-05-14T12:03:10;5.40;;;3.03;;
71734;SDS011;59577;52.122;5.406;2023-05-14T12:05:37;4.73;;;3.07;;
71734;SDS011;59577;52.122;5.406;2023-05-14T12:08:27;4.97;;;3.28;;
71734;SDS011;59577;52.122;5.406;2023-05-14T12:10:56;9.20;;;3.17;;
71734;SDS011;59577;52.122;5.406;2023-05-14T12:13:30;7.65;;;3.10;;
71734;SDS011;59577;52.122;5.406;2023-05-14T12:15:58;6.88;;;2.88;;
71734;SDS011;59577;52.122;5.406;2023-05-14T12:18:28;5.80;;;3.43;;
71734;SDS011;59577;52.122;5.406;2023-05-14T12:21:02;6.15;;;3.20;;
71734;SDS011;59577;52.122;5.406;2023-05-14T12:23:29;4.97;;;2.90;;
71734;SDS011;59577;52.122;5.406;2023-05-14T12:26:00;6.70;;;3.30;;
71734;SDS011;59577;52.122;5.406;2023-05-14T12:28:28;7.50;;;3.00;;
71734;SDS011;59577;52.122;5.406;2023-05-14T12:30:55;7.20;;;2.93;;
71734;SDS011;59577;52.122;5.406;2023-05-14T12:33:22;6.53;;;3.05;;
71734;SDS011;59577;52.122;5.406;2023-05-14T12:35:49;6.53;;;2.97;;
71734;SDS011;59577;52.122;5.406;2023-05-14T12:38:16;4.75;;;3.00;;
71734;SDS011;59577;52.122;5.406;2023-05-14T12:40:42;5.20;;;3.45;;
71734;SDS011;59577;52.122;5.406;2023-05-14T12:43:09;3.83;;;2.73;;
71734;SDS011;59577;52.122;5.406;2023-05-14T12:45:35;8.05;;;3.30;;
71734;SDS011;59577;52.122;5.406;2023-05-14T12:48:02;7.18;;;2.83;;
71734;SDS011;59577;52.122;5.406;2023-05-14T12:50:28;5.28;;;2.90;;
71734;SDS011;59577;52.122;5.406;2023-05-14T12:52:55;6.75;;;3.33;;
71734;SDS011;59577;52.122;5.406;2023-05-14T12:55:22;4.93;;;3.10;;
71734;SDS011;59577;52.122;5.406;2023-05-14T12:57:49;3.80;;;3.10;;
71734;SDS011;59577;52.122;5.406;2023-05-14T13:00:16;3.55;;;3.17;;
71734;SDS011;59577;52.122;5.406;2023-05-14T13:02:42;6.38;;;3.40;;
71734;SDS011;59577;52.122;5.406;2023-05-14T13:05:10;5.03;;;3.05;;
71734;SDS011;59577;52.122;5.406;2023-05-14T13:07:37;3.63;;;3.07;;
71734;SDS011;59577;52.122;5.406;2023-05-14T13:10:04;7.63;;;3.47;;
71734;SDS011;59577;52.122;5.406;2023-05-14T13:12:31;6.35;;;3.70;;
71734;SDS011;59577;52.122;5.406;2023-05-14T13:14:59;5.72;;;3.17;;
71734;SDS011;59577;52.122;5.406;2023-05-14T13:17:25;5.35;;;3.22;;
71734;SDS011;59577;52.122;5.406;2023-05-14T13:19:52;5.73;;;3.00;;
71734;SDS011;59577;52.122;5.406;2023-05-14T13:22:18;7.53;;;3.97;;
71734;SDS011;59577;52.122;5.406;2023-05-14T13:24:45;7.72;;;3.88;;
71734;SDS011;59577;52.122;5.406;2023-05-14T13:27:11;4.90;;;3.10;;
71734;SDS011;59577;52.122;5.406;2023-05-14T13:29:38;7.70;;;3.30;;
71734;SDS011;59577;52.122;5.406;2023-05-14T13:32:05;7.87;;;3.10;;
71734;SDS011;59577;52.122;5.406;2023-05-14T13:34:31;8.18;;;3.00;;
71734;SDS011;59577;52.122;5.406;2023-05-14T13:36:58;3.53;;;2.88;;
71734;SDS011;59577;52.122;5.406;2023-05-14T13:39:24;5.60;;;2.60;;
71734;SDS011;59577;52.122;5.406;2023-05-14T13:41:55;5.43;;;2.60;;
71734;SDS011;59577;52.122;5.406;2023-05-14T13:44:22;5.93;;;3.00;;
71734;SDS011;59577;52.122;5.406;2023-05-14T13:46:49;3.72;;;2.50;;
71734;SDS011;59577;52.122;5.406;2023-05-14T13:49:16;4.85;;;2.78;;
71734;SDS011;59577;52.122;5.406;2023-05-14T13:51:42;5.00;;;2.67;;
71734;SDS011;59577;52.122;5.406;2023-05-14T13:54:09;4.82;;;2.97;;
71734;SDS011;59577;52.122;5.406;2023-05-14T13:56:35;6.70;;;3.20;;
71734;SDS011;59577;52.122;5.406;2023-05-14T13:59:02;3.92;;;2.80;;
71734;SDS011;59577;52.122;5.406;2023-05-14T14:01:31;4.05;;;2.72;;
71734;SDS011;59577;52.122;5.406;2023-05-14T14:03:58;5.05;;;2.83;;
71734;SDS011;59577;52.122;5.406;2023-05-14T14:06:25;8.25;;;3.08;;
71734;SDS011;59577;52.122;5.406;2023-05-14T14:08:55;4.43;;;2.70;;
71734;SDS011;59577;52.122;5.406;2023-05-14T14:11:21;6.30;;;2.95;;
71734;SDS011;59577;52.122;5.406;2023-05-14T14:13:48;6.50;;;3.00;;
71734;SDS011;59577;52.122;5.406;2023-05-14T14:16:14;5.50;;;2.80;;
71734;SDS011;59577;52.122;5.406;2023-05-14T14:18:41;5.18;;;2.80;;
71734;SDS011;59577;52.122;5.406;2023-05-14T14:21:08;3.40;;;2.40;;
71734;SDS011;59577;52.122;5.406;2023-05-14T14:23:35;3.47;;;2.65;;
71734;SDS011;59577;52.122;5.406;2023-05-14T14:26:02;3.20;;;2.58;;
71734;SDS011;59577;52.122;5.406;2023-05-14T14:28:29;3.15;;;2.50;;
71734;SDS011;59577;52.122;5.406;2023-05-14T14:30:55;6.93;;;2.60;;
71734;SDS011;59577;52.122;5.406;2023-05-14T14:33:22;4.20;;;2.23;;
71734;SDS011;59577;52.122;5.406;2023-05-14T14:35:48;4.25;;;2.80;;
71734;SDS011;59577;52.122;5.406;2023-05-14T14:38:15;5.78;;;2.47;;
71734;SDS011;59577;52.122;5.406;2023-05-14T14:40:41;3.13;;;2.60;;
71734;SDS011;59577;52.122;5.406;2023-05-14T14:43:08;4.57;;;2.35;;
71734;SDS011;59577;52.122;5.406;2023-05-14T14:45:34;3.63;;;2.50;;
71734;SDS011;59577;52.122;5.406;2023-05-14T14:50:59;5.30;;;2.60;;
71734;SDS011;59577;52.122;5.406;2023-05-14T14:53:29;4.88;;;2.42;;